Aérodrome :
LOGIN :

S'inscrire | Disclaimer

   EN    FR    IT 

 










Légende :    VFR   VFR Marginal   IFR   IFR Intensif   IFR Très Intensif
Visi : 
Plafond : 
>= 8 km
>= 3000ft
5 à 8 km
1000 à 3000 ft
1500m à 5 km
500 à 1000 ft
800 à 1500m
200 à 500 ft
< 800m
< 200 ft
Symboles :   Orages  Brouillard  Fortes neiges  Fortes précipitations  Vent > 20 kt
SIGMETs :   Divers  Orages  Givrage  Turbulence  Onde Orograph.  Cendres Volcan.







- Altitude de l'aérodrome : 538 ft
- Code IATA : TNF
- Voir les cartes d'approche


LFPN - Toussus Le Noble

DERNIER METAR :
  • 011730Z AUTO 23016KT 9000 RA BKN008/// OVC013/// ///CB 11/10 Q1001 TEMPO 22016G32KT 1500 RA BKN002 SCT012TCU

METARs EXPIRÉS :
  • 011700Z AUTO 23016KT 9999 -DZ OVC007/// ///CB 11/10 Q1001 TEMPO 22016G32KT 1500 RA BKN003
  • 011630Z AUTO 23016KT 5000 -RADZ BR OVC007/// ///TCU 11/10 Q1001 TEMPO 22016G32KT 1500 RA BKN003
  • 011600Z AUTO 23016KT 9999 OVC008 11/10 Q1001 TEMPO 22015G25KT 3000 -RA
  • 011530Z AUTO 23015KT 9999 -DZ OVC007 10/10 Q1001 TEMPO 22015G25KT 3000 -RA
  • 011500Z AUTO 23015KT 9999 -RA OVC007 10/09 Q1001 TEMPO 22015G25KT 3000 -RA

TAF TAF LFPN
Valide du 01 à 18h jusqu'au 02 à 03h UTC


011700Z 0118/0203 24015G25KT 8000 BKN012
TEMPO 0118/0122 3000 -RA BKN006
PROB30
TEMPO 0118/0122 22016G32KT 1500 RA BKN002 SCT012TCU
BECMG 0123/0202 26010KT 9999 SCT020
ATIS : +33 1 39 56 54 70
Pas de NOTAMs connus pour ce terrain.



MET'MAP, la Météo Aéronautique d'un coup d'oeil ! - Copyright ORBIFLY Décembre 2007 - Disclaimer

ORBIFLY MET'MAP TEAM :

Programmation & Développement : Alexandra Zaïnal
Conception & Développement : Baudouin d'Aumeries
Co-Programmation & Développement : Marc-Olivier Méhu
Soutien technique & logistique : Manuel Goepfert

Contact : metmap@orbifly.com




SOURCES & CREDITS :

   NOAA